Pagina principale
METAR-TAF:

METAR-TAF

Aeroporti :

Jakutsk, Russia

Aeroporto di Jakutsk

latitudine: 62-01N, longitudine: 129-43E, altezza: 103 m

Osservazione

Il bollettino è stato emesso 22 minuti fa, alle 21:00 UTC
Vento 4 kt da nord/nord-ovest
Temperature -38°C
Umidità 66%
Pressione 1032 hPa
Visibilità: 2400 m
foschia

METAR: UEEE 242100Z 34002MPS 2400 BR NSC M38/M42 Q1032 R23L/490150 NOSIG RMK QFE765

Ora: 06:22 (21:22 UTC)

Previsione

Il bollettino è stato emesso 1 ora e 22 minuti fa, alle 20:00 UTC
Previsione valida dal 24 alle 21 UTC al 26 alle 03 UTC
Vento 2 kt da direzioni variabili
Visibilità: 2100 m
foschia
Temporaneamente
dal 24 alle 21 UTC al 25 alle 03 UTC
Visibilità: 0300 m
ad un'altezza di 300 ft
nebbia

TAF: UEEE 242000Z 2421/2603 VRB01MPS 2100 BR NSC TEMPO 2421/2503 0300 FG VV003

Osservazioni e previsioni meteorologiche di più di 4000 aeroporti (messaggi METAR e TAF).

Le stazioni disponibili sono rappresentate dai dischi gialli e rossi sulla carta.

Puntare il mouse per vedere il nome della stazione.

Clicca sopra per visualizzare le osservazioni e previsioni meteorologiche.

Per cambiare la mappa : fare clic sui pulsanti verdi con una croce nera per ingrandire, il pulsante verde con un trattino per diminuire, o sulla freccia verde per le mappe adiacenti.


METAR-TAF: